sensor_id;sensor_type;location;lat;lon;timestamp;P1;durP1;ratioP1;P2;durP2;ratioP2
33696;SDS011;20031;43.416;23.232;2022-09-09T00:04:42;18.77;;;9.73;;
33696;SDS011;20031;43.416;23.232;2022-09-09T00:07:38;17.02;;;8.52;;
33696;SDS011;20031;43.416;23.232;2022-09-09T00:10:15;15.50;;;7.63;;
33696;SDS011;20031;43.416;23.232;2022-09-09T00:15:52;19.50;;;9.05;;
33696;SDS011;20031;43.416;23.232;2022-09-09T00:19:15;22.17;;;9.18;;
33696;SDS011;20031;43.416;23.232;2022-09-09T00:21:28;17.73;;;7.90;;
33696;SDS011;20031;43.416;23.232;2022-09-09T00:23:58;15.30;;;8.70;;
33696;SDS011;20031;43.416;23.232;2022-09-09T00:26:34;16.23;;;8.07;;
33696;SDS011;20031;43.416;23.232;2022-09-09T00:29:14;18.05;;;8.52;;
33696;SDS011;20031;43.416;23.232;2022-09-09T00:31:44;13.38;;;8.38;;
33696;SDS011;20031;43.416;23.232;2022-09-09T00:36:48;16.77;;;8.82;;
33696;SDS011;20031;43.416;23.232;2022-09-09T00:39:38;18.00;;;8.50;;
33696;SDS011;20031;43.416;23.232;2022-09-09T00:42:14;16.52;;;8.55;;
33696;SDS011;20031;43.416;23.232;2022-09-09T00:45:01;19.80;;;8.15;;
33696;SDS011;20031;43.416;23.232;2022-09-09T00:47:45;18.80;;;9.00;;
33696;SDS011;20031;43.416;23.232;2022-09-09T00:53:32;16.13;;;9.40;;
33696;SDS011;20031;43.416;23.232;2022-09-09T00:56:20;20.98;;;13.00;;
33696;SDS011;20031;43.416;23.232;2022-09-09T01:01:30;22.83;;;12.52;;
33696;SDS011;20031;43.416;23.232;2022-09-09T01:03:56;24.02;;;12.20;;
33696;SDS011;20031;43.416;23.232;2022-09-09T01:09:10;21.77;;;10.05;;
33696;SDS011;20031;43.416;23.232;2022-09-09T01:17:18;15.25;;;8.43;;
33696;SDS011;20031;43.416;23.232;2022-09-09T01:22:58;22.25;;;11.43;;
33696;SDS011;20031;43.416;23.232;2022-09-09T01:28:29;20.30;;;13.15;;
33696;SDS011;20031;43.416;23.232;2022-09-09T01:30:57;24.33;;;9.70;;
33696;SDS011;20031;43.416;23.232;2022-09-09T01:33:23;20.83;;;8.73;;
33696;SDS011;20031;43.416;23.232;2022-09-09T01:35:53;47.17;;;8.35;;
33696;SDS011;20031;43.416;23.232;2022-09-09T01:38:22;44.50;;;8.40;;
33696;SDS011;20031;43.416;23.232;2022-09-09T01:40:49;31.58;;;8.05;;
33696;SDS011;20031;43.416;23.232;2022-09-09T01:43:17;21.63;;;10.60;;
33696;SDS011;20031;43.416;23.232;2022-09-09T01:45:44;20.95;;;9.45;;
33696;SDS011;20031;43.416;23.232;2022-09-09T01:48:14;18.77;;;10.27;;
33696;SDS011;20031;43.416;23.232;2022-09-09T01:50:40;15.13;;;9.02;;
33696;SDS011;20031;43.416;23.232;2022-09-09T01:53:05;22.10;;;9.43;;
33696;SDS011;20031;43.416;23.232;2022-09-09T01:55:40;18.70;;;8.70;;
33696;SDS011;20031;43.416;23.232;2022-09-09T02:03:28;17.02;;;8.35;;
33696;SDS011;20031;43.416;23.232;2022-09-09T02:06:14;17.67;;;8.57;;
33696;SDS011;20031;43.416;23.232;2022-09-09T02:08:53;15.02;;;8.25;;
33696;SDS011;20031;43.416;23.232;2022-09-09T02:11:23;17.85;;;7.93;;
33696;SDS011;20031;43.416;23.232;2022-09-09T02:14:00;22.92;;;8.90;;
33696;SDS011;20031;43.416;23.232;2022-09-09T02:16:38;20.27;;;8.48;;
33696;SDS011;20031;43.416;23.232;2022-09-09T02:19:14;21.77;;;8.52;;
33696;SDS011;20031;43.416;23.232;2022-09-09T02:21:52;19.08;;;7.93;;
33696;SDS011;20031;43.416;23.232;2022-09-09T02:24:20;15.65;;;7.95;;
33696;SDS011;20031;43.416;23.232;2022-09-09T02:26:47;21.48;;;8.15;;
33696;SDS011;20031;43.416;23.232;2022-09-09T02:29:27;25.83;;;7.63;;
33696;SDS011;20031;43.416;23.232;2022-09-09T02:31:57;23.60;;;8.02;;
33696;SDS011;20031;43.416;23.232;2022-09-09T02:34:28;23.80;;;7.10;;
33696;SDS011;20031;43.416;23.232;2022-09-09T02:36:56;22.90;;;7.38;;
33696;SDS011;20031;43.416;23.232;2022-09-09T02:39:22;30.30;;;7.57;;
33696;SDS011;20031;43.416;23.232;2022-09-09T02:41:48;23.73;;;8.43;;
33696;SDS011;20031;43.416;23.232;2022-09-09T02:44:14;24.38;;;7.57;;
33696;SDS011;20031;43.416;23.232;2022-09-09T02:49:49;26.38;;;6.97;;
33696;SDS011;20031;43.416;23.232;2022-09-09T02:55:23;23.17;;;8.10;;
33696;SDS011;20031;43.416;23.232;2022-09-09T02:58:09;31.33;;;8.23;;
33696;SDS011;20031;43.416;23.232;2022-09-09T03:00:38;23.35;;;7.88;;
33696;SDS011;20031;43.416;23.232;2022-09-09T03:03:05;17.13;;;7.88;;
33696;SDS011;20031;43.416;23.232;2022-09-09T03:05:31;19.50;;;8.23;;
33696;SDS011;20031;43.416;23.232;2022-09-09T03:07:57;15.13;;;7.85;;
33696;SDS011;20031;43.416;23.232;2022-09-09T03:10:23;19.88;;;7.72;;
33696;SDS011;20031;43.416;23.232;2022-09-09T03:12:49;25.05;;;8.07;;
33696;SDS011;20031;43.416;23.232;2022-09-09T03:15:15;30.48;;;7.53;;
33696;SDS011;20031;43.416;23.232;2022-09-09T03:17:41;26.52;;;7.25;;
33696;SDS011;20031;43.416;23.232;2022-09-09T03:20:07;36.80;;;7.85;;
33696;SDS011;20031;43.416;23.232;2022-09-09T03:22:33;30.38;;;7.60;;
33696;SDS011;20031;43.416;23.232;2022-09-09T03:24:59;40.22;;;7.82;;
33696;SDS011;20031;43.416;23.232;2022-09-09T03:27:25;41.97;;;8.02;;
33696;SDS011;20031;43.416;23.232;2022-09-09T03:29:50;23.77;;;7.65;;
33696;SDS011;20031;43.416;23.232;2022-09-09T03:32:16;32.80;;;8.68;;
33696;SDS011;20031;43.416;23.232;2022-09-09T03:34:42;24.30;;;9.88;;
33696;SDS011;20031;43.416;23.232;2022-09-09T03:37:08;32.20;;;10.57;;
33696;SDS011;20031;43.416;23.232;2022-09-09T03:39:34;20.25;;;9.93;;
33696;SDS011;20031;43.416;23.232;2022-09-09T03:41:59;24.75;;;8.52;;
33696;SDS011;20031;43.416;23.232;2022-09-09T03:44:29;20.23;;;8.48;;
33696;SDS011;20031;43.416;23.232;2022-09-09T03:46:55;27.00;;;7.40;;
33696;SDS011;20031;43.416;23.232;2022-09-09T03:49:21;17.35;;;7.63;;
33696;SDS011;20031;43.416;23.232;2022-09-09T03:51:47;23.23;;;7.13;;
33696;SDS011;20031;43.416;23.232;2022-09-09T03:54:13;26.15;;;7.30;;
33696;SDS011;20031;43.416;23.232;2022-09-09T03:56:38;22.23;;;7.68;;
33696;SDS011;20031;43.416;23.232;2022-09-09T03:59:06;19.63;;;8.13;;
33696;SDS011;20031;43.416;23.232;2022-09-09T04:01:33;22.10;;;10.82;;
33696;SDS011;20031;43.416;23.232;2022-09-09T04:03:59;35.03;;;13.38;;
33696;SDS011;20031;43.416;23.232;2022-09-09T04:06:27;33.30;;;19.00;;
33696;SDS011;20031;43.416;23.232;2022-09-09T04:08:52;27.17;;;15.32;;
33696;SDS011;20031;43.416;23.232;2022-09-09T04:11:18;29.45;;;12.18;;
33696;SDS011;20031;43.416;23.232;2022-09-09T04:13:44;36.25;;;11.52;;
33696;SDS011;20031;43.416;23.232;2022-09-09T04:16:10;33.05;;;9.23;;
33696;SDS011;20031;43.416;23.232;2022-09-09T04:18:38;18.63;;;7.85;;
33696;SDS011;20031;43.416;23.232;2022-09-09T04:21:04;18.58;;;7.38;;
33696;SDS011;20031;43.416;23.232;2022-09-09T04:23:31;86.57;;;9.93;;
33696;SDS011;20031;43.416;23.232;2022-09-09T04:25:59;35.28;;;7.38;;
33696;SDS011;20031;43.416;23.232;2022-09-09T04:28:26;20.95;;;7.93;;
33696;SDS011;20031;43.416;23.232;2022-09-09T04:30:53;23.73;;;8.18;;
33696;SDS011;20031;43.416;23.232;2022-09-09T04:33:19;19.10;;;7.97;;
33696;SDS011;20031;43.416;23.232;2022-09-09T04:35:46;25.15;;;8.52;;
33696;SDS011;20031;43.416;23.232;2022-09-09T04:38:14;17.08;;;8.13;;
33696;SDS011;20031;43.416;23.232;2022-09-09T04:40:45;42.22;;;8.75;;
33696;SDS011;20031;43.416;23.232;2022-09-09T04:43:11;24.83;;;7.93;;
33696;SDS011;20031;43.416;23.232;2022-09-09T04:45:37;18.45;;;8.73;;
33696;SDS011;20031;43.416;23.232;2022-09-09T04:48:02;21.58;;;10.07;;
33696;SDS011;20031;43.416;23.232;2022-09-09T04:50:29;24.60;;;10.32;;
33696;SDS011;20031;43.416;23.232;2022-09-09T04:52:54;25.35;;;8.43;;
33696;SDS011;20031;43.416;23.232;2022-09-09T04:55:19;19.17;;;5.57;;
33696;SDS011;20031;43.416;23.232;2022-09-09T04:57:45;22.10;;;5.45;;
33696;SDS011;20031;43.416;23.232;2022-09-09T05:00:10;20.88;;;7.30;;
33696;SDS011;20031;43.416;23.232;2022-09-09T05:02:37;22.95;;;7.30;;
33696;SDS011;20031;43.416;23.232;2022-09-09T05:05:03;26.20;;;6.80;;
33696;SDS011;20031;43.416;23.232;2022-09-09T05:07:30;17.65;;;7.63;;
33696;SDS011;20031;43.416;23.232;2022-09-09T05:09:56;20.45;;;7.43;;
33696;SDS011;20031;43.416;23.232;2022-09-09T05:12:22;20.65;;;6.88;;
33696;SDS011;20031;43.416;23.232;2022-09-09T05:14:49;18.65;;;6.45;;
33696;SDS011;20031;43.416;23.232;2022-09-09T05:17:15;19.42;;;7.00;;
33696;SDS011;20031;43.416;23.232;2022-09-09T05:19:41;32.30;;;5.72;;
33696;SDS011;20031;43.416;23.232;2022-09-09T05:22:06;20.02;;;6.43;;
33696;SDS011;20031;43.416;23.232;2022-09-09T05:24:32;29.50;;;5.85;;
33696;SDS011;20031;43.416;23.232;2022-09-09T05:26:58;20.13;;;6.32;;
33696;SDS011;20031;43.416;23.232;2022-09-09T05:29:27;21.08;;;6.60;;
33696;SDS011;20031;43.416;23.232;2022-09-09T05:31:52;18.15;;;6.30;;
33696;SDS011;20031;43.416;23.232;2022-09-09T05:34:18;19.58;;;5.78;;
33696;SDS011;20031;43.416;23.232;2022-09-09T05:36:43;28.73;;;6.63;;
33696;SDS011;20031;43.416;23.232;2022-09-09T05:39:09;78.43;;;8.13;;
33696;SDS011;20031;43.416;23.232;2022-09-09T05:41:36;61.70;;;8.23;;
33696;SDS011;20031;43.416;23.232;2022-09-09T05:44:02;26.13;;;6.13;;
33696;SDS011;20031;43.416;23.232;2022-09-09T05:46:28;118.07;;;8.77;;
33696;SDS011;20031;43.416;23.232;2022-09-09T05:48:54;31.63;;;5.88;;
33696;SDS011;20031;43.416;23.232;2022-09-09T05:51:23;18.73;;;5.45;;
33696;SDS011;20031;43.416;23.232;2022-09-09T05:53:50;26.77;;;6.05;;
33696;SDS011;20031;43.416;23.232;2022-09-09T05:56:23;21.20;;;6.50;;
33696;SDS011;20031;43.416;23.232;2022-09-09T05:58:50;22.75;;;5.95;;
33696;SDS011;20031;43.416;23.232;2022-09-09T06:01:20;23.80;;;6.30;;
33696;SDS011;20031;43.416;23.232;2022-09-09T06:03:48;15.38;;;6.88;;
33696;SDS011;20031;43.416;23.232;2022-09-09T06:06:15;16.70;;;6.40;;
33696;SDS011;20031;43.416;23.232;2022-09-09T06:08:45;38.28;;;6.10;;
33696;SDS011;20031;43.416;23.232;2022-09-09T06:11:15;33.53;;;8.48;;
33696;SDS011;20031;43.416;23.232;2022-09-09T06:13:42;30.45;;;8.98;;
33696;SDS011;20031;43.416;23.232;2022-09-09T06:16:12;27.45;;;9.65;;
33696;SDS011;20031;43.416;23.232;2022-09-09T06:18:42;26.77;;;9.63;;
33696;SDS011;20031;43.416;23.232;2022-09-09T06:21:15;40.05;;;9.50;;
33696;SDS011;20031;43.416;23.232;2022-09-09T06:23:41;24.73;;;8.00;;
33696;SDS011;20031;43.416;23.232;2022-09-09T06:26:12;22.02;;;7.40;;
33696;SDS011;20031;43.416;23.232;2022-09-09T06:28:40;13.77;;;6.60;;
33696;SDS011;20031;43.416;23.232;2022-09-09T06:31:08;23.27;;;7.68;;
33696;SDS011;20031;43.416;23.232;2022-09-09T06:33:37;27.58;;;7.70;;
33696;SDS011;20031;43.416;23.232;2022-09-09T06:36:13;23.20;;;7.95;;
33696;SDS011;20031;43.416;23.232;2022-09-09T06:38:40;20.20;;;7.70;;
33696;SDS011;20031;43.416;23.232;2022-09-09T06:41:10;26.17;;;7.15;;
33696;SDS011;20031;43.416;23.232;2022-09-09T06:43:37;28.30;;;6.90;;
33696;SDS011;20031;43.416;23.232;2022-09-09T06:48:31;24.58;;;5.93;;
33696;SDS011;20031;43.416;23.232;2022-09-09T06:51:03;22.00;;;6.70;;
33696;SDS011;20031;43.416;23.232;2022-09-09T06:53:30;27.38;;;6.43;;
33696;SDS011;20031;43.416;23.232;2022-09-09T06:55:58;42.25;;;8.80;;
33696;SDS011;20031;43.416;23.232;2022-09-09T06:58:28;56.85;;;8.55;;
33696;SDS011;20031;43.416;23.232;2022-09-09T07:01:04;48.92;;;8.48;;
33696;SDS011;20031;43.416;23.232;2022-09-09T07:03:30;44.25;;;9.60;;
33696;SDS011;20031;43.416;23.232;2022-09-09T07:05:56;37.38;;;9.45;;
33696;SDS011;20031;43.416;23.232;2022-09-09T07:08:22;38.67;;;9.77;;
33696;SDS011;20031;43.416;23.232;2022-09-09T07:10:49;61.95;;;11.10;;
33696;SDS011;20031;43.416;23.232;2022-09-09T07:13:18;34.90;;;9.23;;
33696;SDS011;20031;43.416;23.232;2022-09-09T07:15:46;32.53;;;8.48;;
33696;SDS011;20031;43.416;23.232;2022-09-09T07:18:11;40.13;;;8.40;;
33696;SDS011;20031;43.416;23.232;2022-09-09T07:20:36;27.67;;;7.10;;
33696;SDS011;20031;43.416;23.232;2022-09-09T07:23:03;23.55;;;7.78;;
33696;SDS011;20031;43.416;23.232;2022-09-09T07:25:28;18.52;;;6.65;;
33696;SDS011;20031;43.416;23.232;2022-09-09T07:27:55;29.00;;;7.45;;
33696;SDS011;20031;43.416;23.232;2022-09-09T07:30:21;30.83;;;8.32;;
33696;SDS011;20031;43.416;23.232;2022-09-09T07:32:46;23.25;;;6.95;;
33696;SDS011;20031;43.416;23.232;2022-09-09T07:35:12;27.35;;;7.82;;
33696;SDS011;20031;43.416;23.232;2022-09-09T07:37:37;19.63;;;8.02;;
33696;SDS011;20031;43.416;23.232;2022-09-09T07:40:03;22.25;;;6.88;;
33696;SDS011;20031;43.416;23.232;2022-09-09T07:42:30;20.52;;;7.40;;
33696;SDS011;20031;43.416;23.232;2022-09-09T07:44:55;45.90;;;10.32;;
33696;SDS011;20031;43.416;23.232;2022-09-09T07:47:21;34.03;;;10.32;;
33696;SDS011;20031;43.416;23.232;2022-09-09T07:49:46;26.23;;;7.45;;
33696;SDS011;20031;43.416;23.232;2022-09-09T07:52:14;15.18;;;6.68;;
33696;SDS011;20031;43.416;23.232;2022-09-09T07:54:40;18.02;;;7.68;;
33696;SDS011;20031;43.416;23.232;2022-09-09T07:57:05;43.53;;;11.43;;
33696;SDS011;20031;43.416;23.232;2022-09-09T07:59:31;30.83;;;8.55;;
33696;SDS011;20031;43.416;23.232;2022-09-09T08:01:56;25.58;;;7.90;;
33696;SDS011;20031;43.416;23.232;2022-09-09T08:04:23;22.08;;;7.75;;
33696;SDS011;20031;43.416;23.232;2022-09-09T08:06:54;28.27;;;7.15;;
33696;SDS011;20031;43.416;23.232;2022-09-09T08:09:22;18.15;;;7.05;;
33696;SDS011;20031;43.416;23.232;2022-09-09T08:11:50;16.35;;;7.15;;
33696;SDS011;20031;43.416;23.232;2022-09-09T08:14:16;22.58;;;6.75;;
33696;SDS011;20031;43.416;23.232;2022-09-09T08:16:43;16.17;;;6.82;;
33696;SDS011;20031;43.416;23.232;2022-09-09T08:19:10;28.35;;;6.35;;
33696;SDS011;20031;43.416;23.232;2022-09-09T08:21:36;13.85;;;6.65;;
33696;SDS011;20031;43.416;23.232;2022-09-09T08:24:05;15.80;;;6.38;;
33696;SDS011;20031;43.416;23.232;2022-09-09T08:26:35;11.23;;;5.40;;
33696;SDS011;20031;43.416;23.232;2022-09-09T08:29:06;19.60;;;6.50;;
33696;SDS011;20031;43.416;23.232;2022-09-09T08:31:56;26.70;;;7.40;;
33696;SDS011;20031;43.416;23.232;2022-09-09T08:34:22;18.75;;;6.10;;
33696;SDS011;20031;43.416;23.232;2022-09-09T08:36:48;21.75;;;6.80;;
33696;SDS011;20031;43.416;23.232;2022-09-09T08:39:15;18.45;;;6.38;;
33696;SDS011;20031;43.416;23.232;2022-09-09T08:52:51;14.57;;;5.95;;
33696;SDS011;20031;43.416;23.232;2022-09-09T08:58:39;34.90;;;6.28;;
33696;SDS011;20031;43.416;23.232;2022-09-09T09:11:39;21.92;;;5.93;;
33696;SDS011;20031;43.416;23.232;2022-09-09T09:14:14;12.73;;;5.22;;
33696;SDS011;20031;43.416;23.232;2022-09-09T09:16:53;16.98;;;5.82;;
33696;SDS011;20031;43.416;23.232;2022-09-09T09:19:22;19.20;;;5.25;;
33696;SDS011;20031;43.416;23.232;2022-09-09T09:24:43;18.73;;;5.25;;
33696;SDS011;20031;43.416;23.232;2022-09-09T09:27:18;20.42;;;5.75;;
33696;SDS011;20031;43.416;23.232;2022-09-09T09:30:22;12.00;;;5.13;;
33696;SDS011;20031;43.416;23.232;2022-09-09T09:32:53;14.85;;;5.43;;
33696;SDS011;20031;43.416;23.232;2022-09-09T09:35:23;15.82;;;5.55;;
33696;SDS011;20031;43.416;23.232;2022-09-09T09:37:49;24.20;;;6.63;;
33696;SDS011;20031;43.416;23.232;2022-09-09T09:40:18;14.07;;;5.43;;
33696;SDS011;20031;43.416;23.232;2022-09-09T09:42:55;14.77;;;6.40;;
33696;SDS011;20031;43.416;23.232;2022-09-09T09:45:44;13.27;;;6.28;;
33696;SDS011;20031;43.416;23.232;2022-09-09T09:48:13;23.00;;;6.57;;
33696;SDS011;20031;43.416;23.232;2022-09-09T09:53:37;23.65;;;5.55;;
33696;SDS011;20031;43.416;23.232;2022-09-09T09:56:05;11.13;;;5.47;;
33696;SDS011;20031;43.416;23.232;2022-09-09T09:58:36;15.38;;;5.88;;
33696;SDS011;20031;43.416;23.232;2022-09-09T10:01:02;27.55;;;6.40;;
33696;SDS011;20031;43.416;23.232;2022-09-09T10:03:30;19.92;;;5.65;;
33696;SDS011;20031;43.416;23.232;2022-09-09T10:05:57;19.65;;;5.25;;
33696;SDS011;20031;43.416;23.232;2022-09-09T10:08:26;25.10;;;5.55;;
33696;SDS011;20031;43.416;23.232;2022-09-09T10:14:00;17.90;;;6.28;;
33696;SDS011;20031;43.416;23.232;2022-09-09T10:16:34;21.70;;;6.70;;
33696;SDS011;20031;43.416;23.232;2022-09-09T10:22:42;13.63;;;5.85;;
33696;SDS011;20031;43.416;23.232;2022-09-09T10:27:33;12.63;;;5.28;;
33696;SDS011;20031;43.416;23.232;2022-09-09T10:30:28;14.05;;;5.32;;
33696;SDS011;20031;43.416;23.232;2022-09-09T10:33:37;15.50;;;5.45;;
33696;SDS011;20031;43.416;23.232;2022-09-09T10:38:58;14.98;;;5.50;;
33696;SDS011;20031;43.416;23.232;2022-09-09T10:44:12;14.73;;;6.03;;
33696;SDS011;20031;43.416;23.232;2022-09-09T10:57:40;47.88;;;6.25;;
33696;SDS011;20031;43.416;23.232;2022-09-09T11:00:31;30.30;;;5.95;;
33696;SDS011;20031;43.416;23.232;2022-09-09T11:03:22;17.30;;;5.97;;
33696;SDS011;20031;43.416;23.232;2022-09-09T11:05:58;24.02;;;5.85;;
33696;SDS011;20031;43.416;23.232;2022-09-09T11:08:29;28.77;;;8.70;;
33696;SDS011;20031;43.416;23.232;2022-09-09T11:11:42;11.95;;;6.30;;
33696;SDS011;20031;43.416;23.232;2022-09-09T11:22:03;20.75;;;6.68;;
33696;SDS011;20031;43.416;23.232;2022-09-09T11:24:52;21.08;;;7.22;;
33696;SDS011;20031;43.416;23.232;2022-09-09T11:27:24;26.52;;;7.40;;
33696;SDS011;20031;43.416;23.232;2022-09-09T11:35:22;19.73;;;7.28;;
33696;SDS011;20031;43.416;23.232;2022-09-09T11:38:14;19.58;;;6.95;;
33696;SDS011;20031;43.416;23.232;2022-09-09T11:41:02;16.52;;;7.57;;
33696;SDS011;20031;43.416;23.232;2022-09-09T11:46:11;10.40;;;5.85;;
33696;SDS011;20031;43.416;23.232;2022-09-09T11:48:44;14.13;;;5.22;;
33696;SDS011;20031;43.416;23.232;2022-09-09T11:51:26;13.20;;;6.10;;
33696;SDS011;20031;43.416;23.232;2022-09-09T11:53:54;14.48;;;5.90;;
33696;SDS011;20031;43.416;23.232;2022-09-09T11:58:55;21.27;;;6.00;;
33696;SDS011;20031;43.416;23.232;2022-09-09T12:01:33;17.80;;;6.68;;
33696;SDS011;20031;43.416;23.232;2022-09-09T12:04:10;17.92;;;6.25;;
33696;SDS011;20031;43.416;23.232;2022-09-09T12:06:50;16.10;;;6.57;;
33696;SDS011;20031;43.416;23.232;2022-09-09T12:09:20;15.63;;;5.95;;
33696;SDS011;20031;43.416;23.232;2022-09-09T12:11:48;23.83;;;7.32;;
33696;SDS011;20031;43.416;23.232;2022-09-09T12:14:21;18.33;;;6.40;;
33696;SDS011;20031;43.416;23.232;2022-09-09T12:19:40;20.83;;;6.30;;
33696;SDS011;20031;43.416;23.232;2022-09-09T12:22:23;10.70;;;6.18;;
33696;SDS011;20031;43.416;23.232;2022-09-09T12:25:04;15.85;;;7.10;;
33696;SDS011;20031;43.416;23.232;2022-09-09T12:27:49;12.32;;;6.55;;
33696;SDS011;20031;43.416;23.232;2022-09-09T12:30:56;12.48;;;5.20;;
33696;SDS011;20031;43.416;23.232;2022-09-09T12:33:42;21.17;;;5.78;;
33696;SDS011;20031;43.416;23.232;2022-09-09T12:36:21;17.08;;;5.80;;
33696;SDS011;20031;43.416;23.232;2022-09-09T12:38:53;14.48;;;5.53;;
33696;SDS011;20031;43.416;23.232;2022-09-09T12:41:24;15.88;;;5.72;;
33696;SDS011;20031;43.416;23.232;2022-09-09T12:44:04;13.73;;;5.53;;
33696;SDS011;20031;43.416;23.232;2022-09-09T12:46:43;13.00;;;4.97;;
33696;SDS011;20031;43.416;23.232;2022-09-09T12:49:34;17.52;;;5.85;;
33696;SDS011;20031;43.416;23.232;2022-09-09T12:52:19;14.75;;;5.22;;
33696;SDS011;20031;43.416;23.232;2022-09-09T12:54:53;22.88;;;5.28;;
33696;SDS011;20031;43.416;23.232;2022-09-09T12:57:25;12.27;;;4.90;;
33696;SDS011;20031;43.416;23.232;2022-09-09T13:00:14;9.95;;;4.68;;
33696;SDS011;20031;43.416;23.232;2022-09-09T13:05:34;14.30;;;5.50;;
33696;SDS011;20031;43.416;23.232;2022-09-09T13:08:09;13.93;;;5.50;;
33696;SDS011;20031;43.416;23.232;2022-09-09T13:10:41;12.27;;;5.25;;
33696;SDS011;20031;43.416;23.232;2022-09-09T13:13:36;14.80;;;5.60;;
33696;SDS011;20031;43.416;23.232;2022-09-09T13:16:53;25.98;;;5.97;;
33696;SDS011;20031;43.416;23.232;2022-09-09T13:19:01;13.93;;;5.57;;
33696;SDS011;20031;43.416;23.232;2022-09-09T13:21:39;66.30;;;7.18;;
33696;SDS011;20031;43.416;23.232;2022-09-09T13:24:06;15.50;;;5.10;;
33696;SDS011;20031;43.416;23.232;2022-09-09T13:26:58;13.00;;;4.93;;
33696;SDS011;20031;43.416;23.232;2022-09-09T13:29:29;10.48;;;4.82;;
33696;SDS011;20031;43.416;23.232;2022-09-09T13:32:06;16.52;;;5.18;;
33696;SDS011;20031;43.416;23.232;2022-09-09T13:34:49;13.30;;;5.32;;
33696;SDS011;20031;43.416;23.232;2022-09-09T13:40:18;14.65;;;4.57;;
33696;SDS011;20031;43.416;23.232;2022-09-09T13:42:46;14.20;;;5.03;;
33696;SDS011;20031;43.416;23.232;2022-09-09T13:45:17;25.50;;;5.95;;
33696;SDS011;20031;43.416;23.232;2022-09-09T13:47:45;20.30;;;5.65;;
33696;SDS011;20031;43.416;23.232;2022-09-09T13:50:19;13.40;;;4.97;;
33696;SDS011;20031;43.416;23.232;2022-09-09T13:52:46;20.70;;;5.45;;
33696;SDS011;20031;43.416;23.232;2022-09-09T13:55:16;22.20;;;5.35;;
33696;SDS011;20031;43.416;23.232;2022-09-09T13:57:53;22.17;;;5.43;;
33696;SDS011;20031;43.416;23.232;2022-09-09T14:00:26;14.05;;;5.32;;
33696;SDS011;20031;43.416;23.232;2022-09-09T14:02:54;24.17;;;6.13;;
33696;SDS011;20031;43.416;23.232;2022-09-09T14:05:20;24.75;;;7.50;;
33696;SDS011;20031;43.416;23.232;2022-09-09T14:07:47;19.38;;;6.32;;
33696;SDS011;20031;43.416;23.232;2022-09-09T14:10:13;18.38;;;5.30;;
33696;SDS011;20031;43.416;23.232;2022-09-09T14:12:39;17.88;;;6.05;;
33696;SDS011;20031;43.416;23.232;2022-09-09T14:15:05;18.73;;;5.93;;
33696;SDS011;20031;43.416;23.232;2022-09-09T14:17:32;22.45;;;5.43;;
33696;SDS011;20031;43.416;23.232;2022-09-09T14:19:58;18.02;;;5.40;;
33696;SDS011;20031;43.416;23.232;2022-09-09T14:22:24;20.70;;;5.55;;
33696;SDS011;20031;43.416;23.232;2022-09-09T14:24:50;9.93;;;4.82;;
33696;SDS011;20031;43.416;23.232;2022-09-09T14:27:16;9.57;;;5.25;;
33696;SDS011;20031;43.416;23.232;2022-09-09T14:29:43;8.40;;;4.85;;
33696;SDS011;20031;43.416;23.232;2022-09-09T14:32:10;19.30;;;5.30;;
33696;SDS011;20031;43.416;23.232;2022-09-09T14:34:36;22.58;;;6.38;;
33696;SDS011;20031;43.416;23.232;2022-09-09T14:37:01;17.38;;;6.40;;
33696;SDS011;20031;43.416;23.232;2022-09-09T14:39:27;11.73;;;5.28;;
33696;SDS011;20031;43.416;23.232;2022-09-09T14:41:53;11.18;;;4.95;;
33696;SDS011;20031;43.416;23.232;2022-09-09T14:44:18;21.67;;;5.35;;
33696;SDS011;20031;43.416;23.232;2022-09-09T14:46:44;13.10;;;5.30;;
33696;SDS011;20031;43.416;23.232;2022-09-09T14:49:10;13.75;;;5.15;;
33696;SDS011;20031;43.416;23.232;2022-09-09T14:51:35;13.13;;;5.10;;
33696;SDS011;20031;43.416;23.232;2022-09-09T14:54:01;16.63;;;5.40;;
33696;SDS011;20031;43.416;23.232;2022-09-09T14:56:28;13.60;;;5.18;;
33696;SDS011;20031;43.416;23.232;2022-09-09T14:58:56;13.40;;;4.93;;
33696;SDS011;20031;43.416;23.232;2022-09-09T15:01:23;14.20;;;5.25;;
33696;SDS011;20031;43.416;23.232;2022-09-09T15:03:50;12.32;;;5.15;;
33696;SDS011;20031;43.416;23.232;2022-09-09T15:06:17;21.63;;;5.18;;
33696;SDS011;20031;43.416;23.232;2022-09-09T15:08:44;15.35;;;5.25;;
33696;SDS011;20031;43.416;23.232;2022-09-09T15:11:11;20.33;;;6.13;;
33696;SDS011;20031;43.416;23.232;2022-09-09T15:13:38;36.47;;;7.00;;
33696;SDS011;20031;43.416;23.232;2022-09-09T15:16:06;20.90;;;6.47;;
33696;SDS011;20031;43.416;23.232;2022-09-09T15:18:32;13.85;;;5.47;;
33696;SDS011;20031;43.416;23.232;2022-09-09T15:20:59;13.43;;;4.93;;
33696;SDS011;20031;43.416;23.232;2022-09-09T15:23:26;16.45;;;6.10;;
33696;SDS011;20031;43.416;23.232;2022-09-09T15:25:55;18.52;;;5.63;;
33696;SDS011;20031;43.416;23.232;2022-09-09T15:28:21;20.00;;;5.32;;
33696;SDS011;20031;43.416;23.232;2022-09-09T15:30:51;15.35;;;5.20;;
33696;SDS011;20031;43.416;23.232;2022-09-09T15:33:18;23.45;;;6.20;;
33696;SDS011;20031;43.416;23.232;2022-09-09T15:35:45;37.20;;;8.50;;
33696;SDS011;20031;43.416;23.232;2022-09-09T15:38:11;34.58;;;7.60;;
33696;SDS011;20031;43.416;23.232;2022-09-09T15:40:38;38.90;;;6.63;;
33696;SDS011;20031;43.416;23.232;2022-09-09T15:43:05;17.45;;;5.47;;
33696;SDS011;20031;43.416;23.232;2022-09-09T15:45:31;15.45;;;5.35;;
33696;SDS011;20031;43.416;23.232;2022-09-09T15:47:58;25.50;;;6.90;;
33696;SDS011;20031;43.416;23.232;2022-09-09T15:50:27;31.50;;;5.93;;
33696;SDS011;20031;43.416;23.232;2022-09-09T15:52:57;22.45;;;6.00;;
33696;SDS011;20031;43.416;23.232;2022-09-09T15:55:23;19.35;;;5.40;;
33696;SDS011;20031;43.416;23.232;2022-09-09T15:57:49;20.45;;;5.93;;
33696;SDS011;20031;43.416;23.232;2022-09-09T16:00:15;17.77;;;5.28;;
33696;SDS011;20031;43.416;23.232;2022-09-09T16:02:40;23.45;;;5.55;;
33696;SDS011;20031;43.416;23.232;2022-09-09T16:05:06;14.13;;;4.93;;
33696;SDS011;20031;43.416;23.232;2022-09-09T16:07:31;20.17;;;5.38;;
33696;SDS011;20031;43.416;23.232;2022-09-09T16:09:57;16.00;;;4.88;;
33696;SDS011;20031;43.416;23.232;2022-09-09T16:12:22;17.15;;;5.13;;
33696;SDS011;20031;43.416;23.232;2022-09-09T16:14:48;14.38;;;5.07;;
33696;SDS011;20031;43.416;23.232;2022-09-09T16:17:13;16.30;;;5.13;;
33696;SDS011;20031;43.416;23.232;2022-09-09T16:19:40;14.45;;;5.70;;
33696;SDS011;20031;43.416;23.232;2022-09-09T16:22:05;19.63;;;5.25;;
33696;SDS011;20031;43.416;23.232;2022-09-09T16:24:31;17.15;;;5.88;;
33696;SDS011;20031;43.416;23.232;2022-09-09T16:26:57;35.30;;;7.22;;
33696;SDS011;20031;43.416;23.232;2022-09-09T16:29:23;25.98;;;7.20;;
33696;SDS011;20031;43.416;23.232;2022-09-09T16:31:49;31.92;;;5.78;;
33696;SDS011;20031;43.416;23.232;2022-09-09T16:34:16;17.00;;;6.13;;
33696;SDS011;20031;43.416;23.232;2022-09-09T16:36:42;22.35;;;6.25;;
33696;SDS011;20031;43.416;23.232;2022-09-09T16:39:12;21.13;;;6.07;;
33696;SDS011;20031;43.416;23.232;2022-09-09T16:41:40;23.88;;;6.45;;
33696;SDS011;20031;43.416;23.232;2022-09-09T16:44:07;24.02;;;7.07;;
33696;SDS011;20031;43.416;23.232;2022-09-09T16:46:35;21.83;;;7.55;;